sensor_id;sensor_type;location;lat;lon;timestamp;pressure;altitude;pressure_sealevel;temperature;humidity
56811;BME280;42691;47.234;27.494;2022-09-09T00:04:41;99622.31;;;19.85;100.00
56811;BME280;42691;47.234;27.494;2022-09-09T00:15:59;99615.34;;;19.84;100.00
56811;BME280;42691;47.234;27.494;2022-09-09T00:21:17;99610.91;;;19.84;100.00
56811;BME280;42691;47.234;27.494;2022-09-09T00:23:51;99614.66;;;19.82;100.00
56811;BME280;42691;47.234;27.494;2022-09-09T00:31:41;99608.41;;;19.83;100.00
56811;BME280;42691;47.234;27.494;2022-09-09T00:34:13;99608.97;;;19.86;100.00
56811;BME280;42691;47.234;27.494;2022-09-09T00:36:40;99604.91;;;19.73;100.00
56811;BME280;42691;47.234;27.494;2022-09-09T00:39:12;99604.72;;;19.64;100.00
56811;BME280;42691;47.234;27.494;2022-09-09T00:42:15;99607.84;;;19.79;100.00
56811;BME280;42691;47.234;27.494;2022-09-09T00:45:35;99601.72;;;19.79;100.00
56811;BME280;42691;47.234;27.494;2022-09-09T00:48:10;99600.88;;;19.78;100.00
56811;BME280;42691;47.234;27.494;2022-09-09T00:51:11;99608.09;;;19.76;100.00
56811;BME280;42691;47.234;27.494;2022-09-09T00:56:21;99607.88;;;19.98;100.00
56811;BME280;42691;47.234;27.494;2022-09-09T00:59:28;99612.88;;;20.02;100.00
56811;BME280;42691;47.234;27.494;2022-09-09T01:01:51;99607.59;;;20.02;100.00
56811;BME280;42691;47.234;27.494;2022-09-09T01:04:29;99616.50;;;20.01;100.00
56811;BME280;42691;47.234;27.494;2022-09-09T01:07:07;99610.66;;;19.97;100.00
56811;BME280;42691;47.234;27.494;2022-09-09T01:09:46;99603.81;;;19.85;100.00
56811;BME280;42691;47.234;27.494;2022-09-09T01:12:33;99604.22;;;19.80;100.00
56811;BME280;42691;47.234;27.494;2022-09-09T01:15:09;99603.38;;;19.70;100.00
56811;BME280;42691;47.234;27.494;2022-09-09T01:20:10;99607.22;;;19.66;100.00
56811;BME280;42691;47.234;27.494;2022-09-09T01:27:48;99605.81;;;19.62;100.00
56811;BME280;42691;47.234;27.494;2022-09-09T01:30:16;99606.78;;;19.61;100.00
56811;BME280;42691;47.234;27.494;2022-09-09T01:32:46;99606.78;;;19.61;100.00
56811;BME280;42691;47.234;27.494;2022-09-09T01:37:48;99617.50;;;19.69;100.00
56811;BME280;42691;47.234;27.494;2022-09-09T01:40:13;99615.41;;;19.63;100.00
56811;BME280;42691;47.234;27.494;2022-09-09T01:42:39;99608.88;;;19.67;100.00
56811;BME280;42691;47.234;27.494;2022-09-09T01:45:05;99608.03;;;19.57;100.00
56811;BME280;42691;47.234;27.494;2022-09-09T01:47:30;99602.47;;;19.60;100.00
56811;BME280;42691;47.234;27.494;2022-09-09T01:49:56;99607.31;;;19.55;100.00
56811;BME280;42691;47.234;27.494;2022-09-09T01:52:21;99603.25;;;19.51;100.00
56811;BME280;42691;47.234;27.494;2022-09-09T01:54:47;99604.69;;;19.55;100.00
56811;BME280;42691;47.234;27.494;2022-09-09T01:57:27;99602.19;;;19.53;100.00
56811;BME280;42691;47.234;27.494;2022-09-09T02:00:08;99605.88;;;19.51;100.00
56811;BME280;42691;47.234;27.494;2022-09-09T02:03:13;99608.75;;;19.38;100.00
56811;BME280;42691;47.234;27.494;2022-09-09T02:08:47;99599.03;;;19.39;100.00
56811;BME280;42691;47.234;27.494;2022-09-09T02:11:15;99599.28;;;19.35;100.00
56811;BME280;42691;47.234;27.494;2022-09-09T02:13:43;99606.56;;;19.22;100.00
56811;BME280;42691;47.234;27.494;2022-09-09T02:16:24;99603.41;;;19.28;100.00
56811;BME280;42691;47.234;27.494;2022-09-09T02:21:44;99597.50;;;19.15;100.00
56811;BME280;42691;47.234;27.494;2022-09-09T02:24:12;99595.41;;;19.09;100.00
56811;BME280;42691;47.234;27.494;2022-09-09T02:26:42;99582.13;;;19.20;100.00
56811;BME280;42691;47.234;27.494;2022-09-09T02:29:14;99579.84;;;19.06;100.00
56811;BME280;42691;47.234;27.494;2022-09-09T02:31:41;99579.44;;;19.11;100.00
56811;BME280;42691;47.234;27.494;2022-09-09T02:34:09;99573.72;;;19.05;100.00
56811;BME280;42691;47.234;27.494;2022-09-09T02:36:38;99570.25;;;19.05;100.00
56811;BME280;42691;47.234;27.494;2022-09-09T02:39:07;99581.50;;;19.07;100.00
56811;BME280;42691;47.234;27.494;2022-09-09T02:41:36;99591.22;;;19.07;100.00
56811;BME280;42691;47.234;27.494;2022-09-09T02:44:08;99591.09;;;19.08;100.00
56811;BME280;42691;47.234;27.494;2022-09-09T02:49:18;99590.38;;;19.06;100.00
56811;BME280;42691;47.234;27.494;2022-09-09T02:52:01;99589.69;;;19.04;100.00
56811;BME280;42691;47.234;27.494;2022-09-09T02:54:30;99588.75;;;18.94;100.00
56811;BME280;42691;47.234;27.494;2022-09-09T02:57:42;99589.97;;;18.90;100.00
56811;BME280;42691;47.234;27.494;2022-09-09T02:59:44;99583.03;;;18.89;100.00
56811;BME280;42691;47.234;27.494;2022-09-09T03:02:10;99589.97;;;18.90;100.00
56811;BME280;42691;47.234;27.494;2022-09-09T03:04:37;99595.38;;;18.67;100.00
56811;BME280;42691;47.234;27.494;2022-09-09T03:07:03;99600.34;;;18.82;100.00
56811;BME280;42691;47.234;27.494;2022-09-09T03:09:29;99600.09;;;18.85;100.00
56811;BME280;42691;47.234;27.494;2022-09-09T03:11:55;99599.94;;;18.86;100.00
56811;BME280;42691;47.234;27.494;2022-09-09T03:14:21;99609.66;;;18.86;100.00
56811;BME280;42691;47.234;27.494;2022-09-09T03:16:50;99606.56;;;18.81;100.00
56811;BME280;42691;47.234;27.494;2022-09-09T03:19:16;99611.91;;;18.69;100.00
56811;BME280;42691;47.234;27.494;2022-09-09T03:21:42;99603.75;;;18.72;100.00
56811;BME280;42691;47.234;27.494;2022-09-09T03:24:07;99600.59;;;18.79;100.00
56811;BME280;42691;47.234;27.494;2022-09-09T03:26:33;99600.53;;;18.69;100.00
56811;BME280;42691;47.234;27.494;2022-09-09T03:28:58;99592.63;;;18.69;100.00
56811;BME280;42691;47.234;27.494;2022-09-09T03:31:26;99598.28;;;18.64;100.00
56811;BME280;42691;47.234;27.494;2022-09-09T03:33:55;99594.94;;;18.62;100.00
56811;BME280;42691;47.234;27.494;2022-09-09T03:36:21;99596.94;;;18.70;100.00
56811;BME280;42691;47.234;27.494;2022-09-09T03:38:46;99590.56;;;18.72;100.00
56811;BME280;42691;47.234;27.494;2022-09-09T03:41:12;99591.56;;;18.60;100.00
56811;BME280;42691;47.234;27.494;2022-09-09T03:43:37;99581.00;;;18.71;100.00
56811;BME280;42691;47.234;27.494;2022-09-09T03:46:03;99583.13;;;18.78;100.00
56811;BME280;42691;47.234;27.494;2022-09-09T03:48:29;99585.31;;;18.72;100.00
56811;BME280;42691;47.234;27.494;2022-09-09T03:50:54;99577.53;;;18.71;100.00
56811;BME280;42691;47.234;27.494;2022-09-09T03:53:23;99575.47;;;18.74;100.00
56811;BME280;42691;47.234;27.494;2022-09-09T03:55:51;99573.97;;;18.82;100.00
56811;BME280;42691;47.234;27.494;2022-09-09T03:58:22;99580.09;;;18.82;100.00
56811;BME280;42691;47.234;27.494;2022-09-09T04:01:13;99581.13;;;18.70;100.00
56811;BME280;42691;47.234;27.494;2022-09-09T04:03:40;99587.88;;;18.84;100.00
56811;BME280;42691;47.234;27.494;2022-09-09T04:06:08;99595.25;;;18.90;100.00
56811;BME280;42691;47.234;27.494;2022-09-09T04:08:35;99592.50;;;18.70;100.00
56811;BME280;42691;47.234;27.494;2022-09-09T04:11:01;99593.13;;;18.84;100.00
56811;BME280;42691;47.234;27.494;2022-09-09T04:13:30;99593.97;;;18.84;100.00
56811;BME280;42691;47.234;27.494;2022-09-09T04:15:57;99590.50;;;18.84;100.00
56811;BME280;42691;47.234;27.494;2022-09-09T04:18:23;99598.34;;;18.95;100.00
56811;BME280;42691;47.234;27.494;2022-09-09T04:20:51;99595.97;;;18.92;100.00
56811;BME280;42691;47.234;27.494;2022-09-09T04:23:17;99602.78;;;18.94;100.00
56811;BME280;42691;47.234;27.494;2022-09-09T04:25:48;99608.19;;;18.93;100.00
56811;BME280;42691;47.234;27.494;2022-09-09T04:28:17;99613.13;;;18.86;100.00
56811;BME280;42691;47.234;27.494;2022-09-09T04:30:43;99612.28;;;18.86;100.00
56811;BME280;42691;47.234;27.494;2022-09-09T04:33:10;99609.41;;;18.89;100.00
56811;BME280;42691;47.234;27.494;2022-09-09T04:35:37;99616.56;;;18.98;100.00
56811;BME280;42691;47.234;27.494;2022-09-09T04:38:03;99611.28;;;18.98;100.00
56811;BME280;42691;47.234;27.494;2022-09-09T04:40:29;99619.66;;;19.03;100.00
56811;BME280;42691;47.234;27.494;2022-09-09T04:42:57;99618.22;;;18.99;100.00
56811;BME280;42691;47.234;27.494;2022-09-09T04:45:23;99618.69;;;19.04;100.00
56811;BME280;42691;47.234;27.494;2022-09-09T04:47:48;99613.66;;;19.01;100.00
56811;BME280;42691;47.234;27.494;2022-09-09T04:50:14;99619.81;;;18.90;100.00
56811;BME280;42691;47.234;27.494;2022-09-09T04:52:41;99619.34;;;18.96;100.00
56811;BME280;42691;47.234;27.494;2022-09-09T04:55:07;99622.81;;;18.97;100.00
56811;BME280;42691;47.234;27.494;2022-09-09T04:57:34;99620.66;;;18.91;100.00
56811;BME280;42691;47.234;27.494;2022-09-09T04:59:59;99624.91;;;19.03;100.00
56811;BME280;42691;47.234;27.494;2022-09-09T05:02:26;99622.28;;;19.03;100.00
56811;BME280;42691;47.234;27.494;2022-09-09T05:04:51;99622.38;;;19.22;100.00
56811;BME280;42691;47.234;27.494;2022-09-09T05:07:17;99613.06;;;19.18;100.00
56811;BME280;42691;47.234;27.494;2022-09-09T05:09:42;99610.59;;;19.26;100.00
56811;BME280;42691;47.234;27.494;2022-09-09T05:12:08;99605.06;;;19.29;100.00
56811;BME280;42691;47.234;27.494;2022-09-09T05:14:33;99605.28;;;19.68;100.00
56811;BME280;42691;47.234;27.494;2022-09-09T05:17:02;99604.91;;;19.73;100.00
56811;BME280;42691;47.234;27.494;2022-09-09T05:19:28;99605.44;;;20.26;100.00
56811;BME280;42691;47.234;27.494;2022-09-09T05:21:53;99612.72;;;20.53;100.00
56811;BME280;42691;47.234;27.494;2022-09-09T05:24:18;99611.28;;;20.39;100.00
56811;BME280;42691;47.234;27.494;2022-09-09T05:26:44;99610.50;;;20.77;100.00
56811;BME280;42691;47.234;27.494;2022-09-09T05:29:09;99622.19;;;20.94;100.00
56811;BME280;42691;47.234;27.494;2022-09-09T05:31:35;99617.41;;;21.27;100.00
56811;BME280;42691;47.234;27.494;2022-09-09T05:34:00;99612.94;;;21.37;100.00
56811;BME280;42691;47.234;27.494;2022-09-09T05:36:26;99612.69;;;21.30;100.00
56811;BME280;42691;47.234;27.494;2022-09-09T05:38:52;99606.63;;;21.47;100.00
56811;BME280;42691;47.234;27.494;2022-09-09T05:41:21;99598.16;;;21.71;100.00
56811;BME280;42691;47.234;27.494;2022-09-09T05:43:48;99606.41;;;22.23;100.00
56811;BME280;42691;47.234;27.494;2022-09-09T05:46:19;99597.41;;;22.34;100.00
56811;BME280;42691;47.234;27.494;2022-09-09T05:48:46;99592.00;;;22.79;100.00
56811;BME280;42691;47.234;27.494;2022-09-09T05:51:14;99595.66;;;22.78;100.00
56811;BME280;42691;47.234;27.494;2022-09-09T05:53:44;99603.75;;;22.94;100.00
56811;BME280;42691;47.234;27.494;2022-09-09T05:56:12;99603.22;;;22.91;100.00
56811;BME280;42691;47.234;27.494;2022-09-09T05:58:39;99598.50;;;23.02;100.00
56811;BME280;42691;47.234;27.494;2022-09-09T06:01:11;99604.50;;;23.04;100.00
56811;BME280;42691;47.234;27.494;2022-09-09T06:03:38;99598.28;;;23.14;100.00
56811;BME280;42691;47.234;27.494;2022-09-09T06:06:06;99594.16;;;23.45;100.00
56811;BME280;42691;47.234;27.494;2022-09-09T06:08:38;99604.03;;;23.35;100.00
56811;BME280;42691;47.234;27.494;2022-09-09T06:11:08;99598.50;;;23.28;100.00
56811;BME280;42691;47.234;27.494;2022-09-09T06:13:34;99601.69;;;23.32;100.00
56811;BME280;42691;47.234;27.494;2022-09-09T06:16:02;99602.88;;;24.14;100.00
56811;BME280;42691;47.234;27.494;2022-09-09T06:18:28;99594.06;;;23.97;100.00
56811;BME280;42691;47.234;27.494;2022-09-09T06:20:59;99598.03;;;23.93;100.00
56811;BME280;42691;47.234;27.494;2022-09-09T06:23:26;99594.53;;;23.84;100.00
56811;BME280;42691;47.234;27.494;2022-09-09T06:26:21;99591.97;;;24.25;100.00
56811;BME280;42691;47.234;27.494;2022-09-09T06:28:46;99580.09;;;24.53;100.00
56811;BME280;42691;47.234;27.494;2022-09-09T06:31:14;99569.94;;;24.65;100.00
56811;BME280;42691;47.234;27.494;2022-09-09T06:33:42;99575.91;;;24.51;100.00
56811;BME280;42691;47.234;27.494;2022-09-09T06:36:19;99570.56;;;24.43;100.00
56811;BME280;42691;47.234;27.494;2022-09-09T06:38:45;99577.91;;;24.81;100.00
56811;BME280;42691;47.234;27.494;2022-09-09T06:41:13;99570.44;;;24.60;100.00
56811;BME280;42691;47.234;27.494;2022-09-09T06:43:39;99573.03;;;24.20;100.00
56811;BME280;42691;47.234;27.494;2022-09-09T06:46:13;99574.25;;;24.90;100.00
56811;BME280;42691;47.234;27.494;2022-09-09T06:48:40;99576.09;;;24.98;100.00
56811;BME280;42691;47.234;27.494;2022-09-09T06:51:15;99593.91;;;25.61;100.00
56811;BME280;42691;47.234;27.494;2022-09-09T06:53:42;99590.34;;;25.21;100.00
56811;BME280;42691;47.234;27.494;2022-09-09T06:58:40;99583.50;;;25.27;100.00
56811;BME280;42691;47.234;27.494;2022-09-09T07:01:14;99588.06;;;25.66;100.00
56811;BME280;42691;47.234;27.494;2022-09-09T07:03:41;99579.03;;;25.36;100.00
56811;BME280;42691;47.234;27.494;2022-09-09T07:06:09;99576.69;;;25.33;100.00
56811;BME280;42691;47.234;27.494;2022-09-09T07:08:40;99581.56;;;24.72;100.00
56811;BME280;42691;47.234;27.494;2022-09-09T07:11:07;99582.22;;;24.42;100.00
56811;BME280;42691;47.234;27.494;2022-09-09T07:13:33;99589.84;;;24.37;100.00
56811;BME280;42691;47.234;27.494;2022-09-09T07:16:10;99587.53;;;24.42;100.00
56811;BME280;42691;47.234;27.494;2022-09-09T07:18:36;99588.97;;;24.20;100.00
56811;BME280;42691;47.234;27.494;2022-09-09T07:21:02;99587.69;;;24.32;100.00
56811;BME280;42691;47.234;27.494;2022-09-09T07:23:29;99582.75;;;24.61;100.00
56811;BME280;42691;47.234;27.494;2022-09-09T07:25:55;99579.88;;;24.47;100.00
56811;BME280;42691;47.234;27.494;2022-09-09T07:28:21;99588.84;;;24.46;100.00
56811;BME280;42691;47.234;27.494;2022-09-09T07:30:59;99583.53;;;24.46;100.00
56811;BME280;42691;47.234;27.494;2022-09-09T07:33:27;99582.91;;;24.60;100.00
56811;BME280;42691;47.234;27.494;2022-09-09T07:36:02;99585.06;;;24.56;100.00
56811;BME280;42691;47.234;27.494;2022-09-09T07:38:28;99584.19;;;24.31;100.00
56811;BME280;42691;47.234;27.494;2022-09-09T07:41:05;99578.22;;;24.29;100.00
56811;BME280;42691;47.234;27.494;2022-09-09T07:43:32;99585.19;;;24.30;100.00
56811;BME280;42691;47.234;27.494;2022-09-09T07:45:59;99579.13;;;24.04;100.00
56811;BME280;42691;47.234;27.494;2022-09-09T07:48:27;99595.91;;;24.05;100.00
56811;BME280;42691;47.234;27.494;2022-09-09T07:50:52;99604.34;;;24.00;100.00
56811;BME280;42691;47.234;27.494;2022-09-09T07:53:18;99607.22;;;23.73;100.00
56811;BME280;42691;47.234;27.494;2022-09-09T07:55:45;99608.88;;;23.65;100.00
56811;BME280;42691;47.234;27.494;2022-09-09T07:58:10;99591.38;;;23.55;100.00
56811;BME280;42691;47.234;27.494;2022-09-09T08:00:36;99584.97;;;23.65;100.00
56811;BME280;42691;47.234;27.494;2022-09-09T08:03:01;99597.75;;;23.70;100.00
56811;BME280;42691;47.234;27.494;2022-09-09T08:05:27;99602.97;;;23.80;100.00
56811;BME280;42691;47.234;27.494;2022-09-09T08:07:53;99603.06;;;24.12;100.00
56811;BME280;42691;47.234;27.494;2022-09-09T08:10:18;99601.06;;;24.14;100.00
56811;BME280;42691;47.234;27.494;2022-09-09T08:12:44;99602.44;;;24.18;100.00
56811;BME280;42691;47.234;27.494;2022-09-09T08:15:10;99596.50;;;24.41;100.00
56811;BME280;42691;47.234;27.494;2022-09-09T08:17:36;99586.19;;;24.29;100.00
56811;BME280;42691;47.234;27.494;2022-09-09T08:20:03;99589.22;;;24.59;100.00
56811;BME280;42691;47.234;27.494;2022-09-09T08:22:31;99591.88;;;24.67;100.00
56811;BME280;42691;47.234;27.494;2022-09-09T08:24:56;99591.19;;;24.33;100.00
56811;BME280;42691;47.234;27.494;2022-09-09T08:27:22;99593.69;;;24.34;100.00
56811;BME280;42691;47.234;27.494;2022-09-09T08:29:48;99595.50;;;24.50;100.00
56811;BME280;42691;47.234;27.494;2022-09-09T08:32:13;99591.88;;;24.59;100.00
56811;BME280;42691;47.234;27.494;2022-09-09T08:34:38;99587.88;;;24.71;100.00
56811;BME280;42691;47.234;27.494;2022-09-09T08:37:06;99585.91;;;25.06;100.00
56811;BME280;42691;47.234;27.494;2022-09-09T08:39:31;99583.16;;;25.38;100.00
56811;BME280;42691;47.234;27.494;2022-09-09T08:50:36;99586.72;;;25.78;100.00
56811;BME280;42691;47.234;27.494;2022-09-09T08:53:24;99589.41;;;25.62;100.00
56811;BME280;42691;47.234;27.494;2022-09-09T08:56:01;99584.09;;;25.70;100.00
56811;BME280;42691;47.234;27.494;2022-09-09T08:58:31;99588.06;;;25.74;100.00
56811;BME280;42691;47.234;27.494;2022-09-09T09:09:05;99587.91;;;25.75;100.00
56811;BME280;42691;47.234;27.494;2022-09-09T09:11:38;99589.22;;;25.79;100.00
56811;BME280;42691;47.234;27.494;2022-09-09T09:14:11;99582.56;;;25.75;100.00
56811;BME280;42691;47.234;27.494;2022-09-09T09:19:14;99579.41;;;25.64;100.00
56811;BME280;42691;47.234;27.494;2022-09-09T09:21:50;99573.94;;;25.57;100.00
56811;BME280;42691;47.234;27.494;2022-09-09T09:24:20;99575.28;;;25.53;100.00
56811;BME280;42691;47.234;27.494;2022-09-09T09:26:47;99563.22;;;25.34;100.00
56811;BME280;42691;47.234;27.494;2022-09-09T09:29:18;99563.25;;;25.18;100.00
56811;BME280;42691;47.234;27.494;2022-09-09T09:31:52;99562.94;;;25.05;100.00
56811;BME280;42691;47.234;27.494;2022-09-09T09:34:19;99558.94;;;25.09;100.00
56811;BME280;42691;47.234;27.494;2022-09-09T09:37:11;99556.94;;;25.11;100.00
56811;BME280;42691;47.234;27.494;2022-09-09T09:39:37;99558.78;;;25.10;100.00
56811;BME280;42691;47.234;27.494;2022-09-09T09:42:09;99560.63;;;25.02;100.00
56811;BME280;42691;47.234;27.494;2022-09-09T09:44:37;99563.25;;;25.18;100.00
56811;BME280;42691;47.234;27.494;2022-09-09T09:47:13;99560.78;;;25.08;100.00
56811;BME280;42691;47.234;27.494;2022-09-09T09:49:51;99564.94;;;25.11;100.00
56811;BME280;42691;47.234;27.494;2022-09-09T09:52:21;99569.59;;;25.09;100.00
56811;BME280;42691;47.234;27.494;2022-09-09T09:54:48;99571.94;;;25.04;100.00
56811;BME280;42691;47.234;27.494;2022-09-09T09:57:15;99573.75;;;25.03;100.00
56811;BME280;42691;47.234;27.494;2022-09-09T09:59:42;99567.75;;;24.93;100.00
56811;BME280;42691;47.234;27.494;2022-09-09T10:02:20;99565.25;;;24.83;100.00
56811;BME280;42691;47.234;27.494;2022-09-09T10:05:19;99569.91;;;24.81;100.00
56811;BME280;42691;47.234;27.494;2022-09-09T10:07:45;99581.22;;;24.83;100.00
56811;BME280;42691;47.234;27.494;2022-09-09T10:10:32;99584.88;;;24.82;100.00
56811;BME280;42691;47.234;27.494;2022-09-09T10:13:10;99588.53;;;24.81;100.00
56811;BME280;42691;47.234;27.494;2022-09-09T10:19:18;99585.72;;;24.83;100.00
56811;BME280;42691;47.234;27.494;2022-09-09T10:21:51;99588.38;;;24.75;100.00
56811;BME280;42691;47.234;27.494;2022-09-09T10:24:27;99590.38;;;24.73;100.00
56811;BME280;42691;47.234;27.494;2022-09-09T10:27:19;99594.22;;;24.62;100.00
56811;BME280;42691;47.234;27.494;2022-09-09T10:35:27;99597.50;;;24.48;100.00
56811;BME280;42691;47.234;27.494;2022-09-09T11:00:04;99619.81;;;24.05;100.00
56811;BME280;42691;47.234;27.494;2022-09-09T11:02:33;99618.31;;;24.02;100.00
56811;BME280;42691;47.234;27.494;2022-09-09T11:10:03;99614.34;;;24.06;100.00
56811;BME280;42691;47.234;27.494;2022-09-09T11:12:34;99609.53;;;24.10;100.00
56811;BME280;42691;47.234;27.494;2022-09-09T11:15:08;99608.75;;;24.17;100.00
56811;BME280;42691;47.234;27.494;2022-09-09T11:17:53;99604.88;;;24.12;100.00
56811;BME280;42691;47.234;27.494;2022-09-09T11:20:20;99612.03;;;24.11;100.00
56811;BME280;42691;47.234;27.494;2022-09-09T11:25:25;99611.56;;;24.24;100.00
56811;BME280;42691;47.234;27.494;2022-09-09T11:36:35;99599.78;;;24.26;100.00
56811;BME280;42691;47.234;27.494;2022-09-09T11:41:52;99605.81;;;24.37;100.00
56811;BME280;42691;47.234;27.494;2022-09-09T11:44:28;99591.69;;;24.28;100.00
56811;BME280;42691;47.234;27.494;2022-09-09T11:46:55;99589.16;;;24.26;100.00
56811;BME280;42691;47.234;27.494;2022-09-09T11:49:43;99585.53;;;24.27;100.00
56811;BME280;42691;47.234;27.494;2022-09-09T11:54:55;99572.91;;;24.29;100.00
56811;BME280;42691;47.234;27.494;2022-09-09T11:57:39;99565.94;;;24.37;100.00
56811;BME280;42691;47.234;27.494;2022-09-09T12:00:06;99572.91;;;24.29;100.00
56811;BME280;42691;47.234;27.494;2022-09-09T12:02:32;99568.91;;;24.34;100.00
56811;BME280;42691;47.234;27.494;2022-09-09T12:05:00;99567.25;;;24.49;100.00
56811;BME280;42691;47.234;27.494;2022-09-09T12:07:50;99565.44;;;24.41;100.00
56811;BME280;42691;47.234;27.494;2022-09-09T12:10:32;99565.44;;;24.41;100.00
56811;BME280;42691;47.234;27.494;2022-09-09T12:13:18;99563.59;;;24.50;100.00
56811;BME280;42691;47.234;27.494;2022-09-09T12:15:49;99563.78;;;24.56;100.00
56811;BME280;42691;47.234;27.494;2022-09-09T12:23:43;99574.09;;;24.59;100.00
56811;BME280;42691;47.234;27.494;2022-09-09T12:26:32;99567.94;;;24.59;100.00
56811;BME280;42691;47.234;27.494;2022-09-09T12:31:30;99572.94;;;24.62;100.00
56811;BME280;42691;47.234;27.494;2022-09-09T12:36:58;99556.28;;;24.52;100.00
56811;BME280;42691;47.234;27.494;2022-09-09T12:39:35;99563.63;;;24.66;100.00
56811;BME280;42691;47.234;27.494;2022-09-09T12:42:02;99561.28;;;24.63;100.00
56811;BME280;42691;47.234;27.494;2022-09-09T12:44:30;99555.28;;;24.77;100.00
56811;BME280;42691;47.234;27.494;2022-09-09T12:46:58;99557.63;;;24.80;100.00
56811;BME280;42691;47.234;27.494;2022-09-09T12:49:34;99566.28;;;24.99;100.00
56811;BME280;42691;47.234;27.494;2022-09-09T12:52:06;99565.09;;;24.93;100.00
56811;BME280;42691;47.234;27.494;2022-09-09T12:54:35;99557.28;;;25.08;100.00
56811;BME280;42691;47.234;27.494;2022-09-09T12:57:01;99560.28;;;24.97;100.00
56811;BME280;42691;47.234;27.494;2022-09-09T12:59:36;99554.78;;;25.06;100.00
56811;BME280;42691;47.234;27.494;2022-09-09T13:02:02;99556.59;;;25.14;100.00
56811;BME280;42691;47.234;27.494;2022-09-09T13:04:36;99561.72;;;25.23;100.00
56811;BME280;42691;47.234;27.494;2022-09-09T13:07:08;99566.91;;;25.17;100.00
56811;BME280;42691;47.234;27.494;2022-09-09T13:09:37;99571.25;;;25.10;100.00
56811;BME280;42691;47.234;27.494;2022-09-09T13:12:03;99574.56;;;25.12;100.00
56811;BME280;42691;47.234;27.494;2022-09-09T13:14:35;99577.91;;;25.14;100.00
56811;BME280;42691;47.234;27.494;2022-09-09T13:17:04;99574.22;;;25.15;100.00
56811;BME280;42691;47.234;27.494;2022-09-09T13:19:33;99576.56;;;25.18;100.00
56811;BME280;42691;47.234;27.494;2022-09-09T13:22:11;99572.56;;;25.14;100.00
56811;BME280;42691;47.234;27.494;2022-09-09T13:24:38;99576.91;;;25.07;100.00
56811;BME280;42691;47.234;27.494;2022-09-09T13:27:27;99575.75;;;25.09;100.00
56811;BME280;42691;47.234;27.494;2022-09-09T13:29:54;99576.56;;;25.10;100.00
56811;BME280;42691;47.234;27.494;2022-09-09T13:32:23;99578.22;;;25.11;100.00
56811;BME280;42691;47.234;27.494;2022-09-09T13:37:33;99579.56;;;25.15;100.00
56811;BME280;42691;47.234;27.494;2022-09-09T13:40:00;99574.09;;;25.08;100.00
56811;BME280;42691;47.234;27.494;2022-09-09T13:42:29;99576.56;;;25.10;100.00
56811;BME280;42691;47.234;27.494;2022-09-09T13:44:57;99581.72;;;25.11;100.00
56811;BME280;42691;47.234;27.494;2022-09-09T13:47:41;99569.25;;;25.12;100.00
56811;BME280;42691;47.234;27.494;2022-09-09T13:50:23;99576.75;;;25.00;100.00
56811;BME280;42691;47.234;27.494;2022-09-09T13:52:57;99583.22;;;24.98;100.00
56811;BME280;42691;47.234;27.494;2022-09-09T13:55:26;99581.56;;;24.97;100.00
56811;BME280;42691;47.234;27.494;2022-09-09T13:57:59;99579.25;;;24.93;100.00
56811;BME280;42691;47.234;27.494;2022-09-09T14:00:25;99570.91;;;24.97;100.00
56811;BME280;42691;47.234;27.494;2022-09-09T14:02:51;99570.25;;;24.94;100.00
56811;BME280;42691;47.234;27.494;2022-09-09T14:05:18;99575.91;;;24.83;100.00
56811;BME280;42691;47.234;27.494;2022-09-09T14:07:44;99572.75;;;24.72;100.00
56811;BME280;42691;47.234;27.494;2022-09-09T14:10:11;99571.09;;;24.79;100.00
56811;BME280;42691;47.234;27.494;2022-09-09T14:12:37;99567.59;;;24.78;100.00
56811;BME280;42691;47.234;27.494;2022-09-09T14:15:04;99577.25;;;24.71;100.00
56811;BME280;42691;47.234;27.494;2022-09-09T14:17:30;99579.41;;;24.76;100.00
56811;BME280;42691;47.234;27.494;2022-09-09T14:19:57;99573.59;;;24.72;100.00
56811;BME280;42691;47.234;27.494;2022-09-09T14:22:23;99577.75;;;24.75;100.00
56811;BME280;42691;47.234;27.494;2022-09-09T14:24:48;99576.41;;;24.71;100.00
56811;BME280;42691;47.234;27.494;2022-09-09T14:27:14;99566.94;;;24.68;100.00
56811;BME280;42691;47.234;27.494;2022-09-09T14:29:41;99581.56;;;24.72;100.00
56811;BME280;42691;47.234;27.494;2022-09-09T14:32:06;99579.91;;;24.71;100.00
56811;BME280;42691;47.234;27.494;2022-09-09T14:34:31;99575.59;;;24.70;100.00
56811;BME280;42691;47.234;27.494;2022-09-09T14:36:58;99573.75;;;24.62;100.00
56811;BME280;42691;47.234;27.494;2022-09-09T14:39:23;99572.09;;;24.61;100.00
56811;BME280;42691;47.234;27.494;2022-09-09T14:41:49;99574.59;;;24.63;100.00
56811;BME280;42691;47.234;27.494;2022-09-09T14:44:14;99575.59;;;24.54;100.00
56811;BME280;42691;47.234;27.494;2022-09-09T14:46:41;99585.69;;;24.50;100.00
56811;BME280;42691;47.234;27.494;2022-09-09T14:49:08;99581.88;;;24.37;100.00
56811;BME280;42691;47.234;27.494;2022-09-09T14:51:35;99588.19;;;24.36;100.00
56811;BME280;42691;47.234;27.494;2022-09-09T14:54:01;99577.88;;;24.33;100.00
56811;BME280;42691;47.234;27.494;2022-09-09T14:56:29;99577.22;;;24.39;100.00
56811;BME280;42691;47.234;27.494;2022-09-09T14:58:55;99579.88;;;24.30;100.00
56811;BME280;42691;47.234;27.494;2022-09-09T15:01:22;99578.72;;;24.33;100.00
56811;BME280;42691;47.234;27.494;2022-09-09T15:04:02;99583.53;;;24.29;100.00
56811;BME280;42691;47.234;27.494;2022-09-09T15:06:31;99582.16;;;24.17;100.00